sensor_id;sensor_type;location;lat;lon;timestamp;pressure;altitude;pressure_sealevel;temperature;humidity
68634;BME280;55625;47.072;22.192;2023-03-03T00:00:29;100005.25;;;4.22;100.00
68634;BME280;55625;47.072;22.192;2023-03-03T00:03:00;100001.63;;;4.25;100.00
68634;BME280;55625;47.072;22.192;2023-03-03T00:05:32;99998.81;;;4.28;100.00
68634;BME280;55625;47.072;22.192;2023-03-03T00:08:01;99993.22;;;4.32;100.00
68634;BME280;55625;47.072;22.192;2023-03-03T00:10:27;99998.00;;;4.35;100.00
68634;BME280;55625;47.072;22.192;2023-03-03T00:12:53;99989.59;;;4.35;100.00
68634;BME280;55625;47.072;22.192;2023-03-03T00:15:22;99992.78;;;4.37;100.00
68634;BME280;55625;47.072;22.192;2023-03-03T00:17:50;99990.38;;;4.39;100.00
68634;BME280;55625;47.072;22.192;2023-03-03T00:20:36;99990.75;;;4.41;100.00
68634;BME280;55625;47.072;22.192;2023-03-03T00:23:34;99990.75;;;4.41;100.00
68634;BME280;55625;47.072;22.192;2023-03-03T00:26:00;99991.97;;;4.40;100.00
68634;BME280;55625;47.072;22.192;2023-03-03T00:28:43;99994.38;;;4.42;100.00
68634;BME280;55625;47.072;22.192;2023-03-03T00:31:19;99993.16;;;4.43;100.00
68634;BME280;55625;47.072;22.192;2023-03-03T00:33:52;99987.56;;;4.43;100.00
68634;BME280;55625;47.072;22.192;2023-03-03T00:36:36;99980.31;;;4.42;100.00
68634;BME280;55625;47.072;22.192;2023-03-03T00:39:33;99985.94;;;4.42;100.00
68634;BME280;55625;47.072;22.192;2023-03-03T00:42:00;99976.31;;;4.43;100.00
68634;BME280;55625;47.072;22.192;2023-03-03T00:44:51;99974.72;;;4.42;100.00
68634;BME280;55625;47.072;22.192;2023-03-03T00:50:26;99979.50;;;4.45;100.00
68634;BME280;55625;47.072;22.192;2023-03-03T00:53:02;99977.91;;;4.47;100.00
68634;BME280;55625;47.072;22.192;2023-03-03T00:55:29;99969.88;;;4.49;100.00
68634;BME280;55625;47.072;22.192;2023-03-03T00:57:55;99970.25;;;4.51;100.00
68634;BME280;55625;47.072;22.192;2023-03-03T01:00:21;99967.44;;;4.55;100.00
68634;BME280;55625;47.072;22.192;2023-03-03T01:02:47;99963.44;;;4.52;100.00
68634;BME280;55625;47.072;22.192;2023-03-03T01:05:15;99962.22;;;4.53;100.00
68634;BME280;55625;47.072;22.192;2023-03-03T01:07:42;99958.59;;;4.56;100.00
68634;BME280;55625;47.072;22.192;2023-03-03T01:10:09;99960.19;;;4.57;100.00
68634;BME280;55625;47.072;22.192;2023-03-03T01:12:36;99948.53;;;4.59;100.00
68634;BME280;55625;47.072;22.192;2023-03-03T01:15:13;99950.97;;;4.60;100.00
68634;BME280;55625;47.072;22.192;2023-03-03T01:17:39;99952.97;;;4.60;100.00
68634;BME280;55625;47.072;22.192;2023-03-03T01:20:07;99948.97;;;4.61;100.00
68634;BME280;55625;47.072;22.192;2023-03-03T01:22:34;99949.34;;;4.63;100.00
68634;BME280;55625;47.072;22.192;2023-03-03T01:25:00;99945.75;;;4.62;100.00
68634;BME280;55625;47.072;22.192;2023-03-03T01:27:29;99946.13;;;4.64;100.00
68634;BME280;55625;47.072;22.192;2023-03-03T01:29:56;99941.69;;;4.67;100.00
68634;BME280;55625;47.072;22.192;2023-03-03T01:32:24;99945.72;;;4.70;100.00
68634;BME280;55625;47.072;22.192;2023-03-03T01:34:50;99937.66;;;4.72;100.00
68634;BME280;55625;47.072;22.192;2023-03-03T01:37:16;99933.63;;;4.73;100.00
68634;BME280;55625;47.072;22.192;2023-03-03T01:39:41;99933.63;;;4.73;100.00
68634;BME280;55625;47.072;22.192;2023-03-03T01:42:07;99936.03;;;4.74;100.00
68634;BME280;55625;47.072;22.192;2023-03-03T01:44:33;99932.81;;;4.76;100.00
68634;BME280;55625;47.072;22.192;2023-03-03T01:47:28;99934.41;;;4.77;100.00
68634;BME280;55625;47.072;22.192;2023-03-03T01:50:03;99927.59;;;4.78;100.00
68634;BME280;55625;47.072;22.192;2023-03-03T01:52:41;99921.56;;;4.79;100.00
68634;BME280;55625;47.072;22.192;2023-03-03T01:55:35;99926.75;;;4.81;100.00
68634;BME280;55625;47.072;22.192;2023-03-03T01:58:13;99925.56;;;4.82;100.00
68634;BME280;55625;47.072;22.192;2023-03-03T02:00:43;99921.53;;;4.83;100.00
68634;BME280;55625;47.072;22.192;2023-03-03T02:03:10;99922.75;;;4.82;100.00
68634;BME280;55625;47.072;22.192;2023-03-03T02:05:37;99926.34;;;4.82;100.00
68634;BME280;55625;47.072;22.192;2023-03-03T02:08:07;99918.72;;;4.83;100.00
68634;BME280;55625;47.072;22.192;2023-03-03T02:10:35;99925.94;;;4.84;100.00
68634;BME280;55625;47.072;22.192;2023-03-03T02:13:02;99923.13;;;4.84;100.00
68634;BME280;55625;47.072;22.192;2023-03-03T02:15:33;99923.13;;;4.84;100.00
68634;BME280;55625;47.072;22.192;2023-03-03T02:18:15;99916.72;;;4.83;100.00
68634;BME280;55625;47.072;22.192;2023-03-03T02:21:12;99907.09;;;4.81;100.00
68634;BME280;55625;47.072;22.192;2023-03-03T02:24:21;99913.53;;;4.78;100.00
68634;BME280;55625;47.072;22.192;2023-03-03T02:26:50;99916.72;;;4.80;100.00
68634;BME280;55625;47.072;22.192;2023-03-03T02:29:16;99916.31;;;4.81;100.00
68634;BME280;55625;47.072;22.192;2023-03-03T02:31:41;99907.09;;;4.81;100.00
68634;BME280;55625;47.072;22.192;2023-03-03T02:34:08;99907.88;;;4.85;100.00
68634;BME280;55625;47.072;22.192;2023-03-03T02:36:37;99912.28;;;4.86;100.00
68634;BME280;55625;47.072;22.192;2023-03-03T02:39:10;99907.06;;;4.84;100.00
68634;BME280;55625;47.072;22.192;2023-03-03T02:42:20;99914.31;;;4.82;100.00
68634;BME280;55625;47.072;22.192;2023-03-03T02:44:50;99910.31;;;4.79;100.00
68634;BME280;55625;47.072;22.192;2023-03-03T02:47:16;99911.94;;;4.77;100.00
68634;BME280;55625;47.072;22.192;2023-03-03T02:49:42;99915.94;;;4.76;100.00
68634;BME280;55625;47.072;22.192;2023-03-03T02:52:09;99908.34;;;4.73;100.00
68634;BME280;55625;47.072;22.192;2023-03-03T02:54:36;99903.94;;;4.72;100.00
68634;BME280;55625;47.072;22.192;2023-03-03T02:57:04;99911.97;;;4.70;100.00
68634;BME280;55625;47.072;22.192;2023-03-03T02:59:30;99911.97;;;4.70;100.00
68634;BME280;55625;47.072;22.192;2023-03-03T03:01:56;99899.53;;;4.67;100.00
68634;BME280;55625;47.072;22.192;2023-03-03T03:04:24;99905.56;;;4.65;100.00
68634;BME280;55625;47.072;22.192;2023-03-03T03:06:52;99895.53;;;4.64;100.00
68634;BME280;55625;47.072;22.192;2023-03-03T03:09:21;99898.75;;;4.66;100.00
68634;BME280;55625;47.072;22.192;2023-03-03T03:11:47;99894.34;;;4.65;100.00
68634;BME280;55625;47.072;22.192;2023-03-03T03:14:13;99899.53;;;4.67;100.00
68634;BME280;55625;47.072;22.192;2023-03-03T03:16:40;99901.94;;;4.68;100.00
68634;BME280;55625;47.072;22.192;2023-03-03T03:19:06;99888.28;;;4.71;100.00
68634;BME280;55625;47.072;22.192;2023-03-03T03:21:32;99899.91;;;4.73;100.00
68634;BME280;55625;47.072;22.192;2023-03-03T03:23:59;99891.06;;;4.74;100.00
68634;BME280;55625;47.072;22.192;2023-03-03T03:26:25;99891.88;;;4.75;100.00
68634;BME280;55625;47.072;22.192;2023-03-03T03:28:51;99890.66;;;4.76;100.00
68634;BME280;55625;47.072;22.192;2023-03-03T03:31:19;99891.84;;;4.78;100.00
68634;BME280;55625;47.072;22.192;2023-03-03T03:33:46;99889.81;;;4.79;100.00
68634;BME280;55625;47.072;22.192;2023-03-03T03:36:12;99885.00;;;4.79;100.00
68634;BME280;55625;47.072;22.192;2023-03-03T03:38:38;99884.22;;;4.79;100.00
68634;BME280;55625;47.072;22.192;2023-03-03T03:41:05;99891.44;;;4.80;100.00
68634;BME280;55625;47.072;22.192;2023-03-03T03:43:32;99885.81;;;4.80;100.00
68634;BME280;55625;47.072;22.192;2023-03-03T03:45:58;99878.59;;;4.79;100.00
68634;BME280;55625;47.072;22.192;2023-03-03T03:48:25;99879.78;;;4.78;100.00
68634;BME280;55625;47.072;22.192;2023-03-03T03:50:51;99875.38;;;4.77;100.00
68634;BME280;55625;47.072;22.192;2023-03-03T03:53:18;99877.41;;;4.76;100.00
68634;BME280;55625;47.072;22.192;2023-03-03T03:55:44;99871.78;;;4.76;100.00
68634;BME280;55625;47.072;22.192;2023-03-03T03:58:14;99872.56;;;4.77;100.00
68634;BME280;55625;47.072;22.192;2023-03-03T04:00:42;99876.97;;;4.78;100.00
68634;BME280;55625;47.072;22.192;2023-03-03T04:03:08;99868.56;;;4.78;100.00
68634;BME280;55625;47.072;22.192;2023-03-03T04:05:35;99868.13;;;4.79;100.00
68634;BME280;55625;47.072;22.192;2023-03-03T04:08:01;99876.56;;;4.79;100.00
68634;BME280;55625;47.072;22.192;2023-03-03T04:10:27;99881.78;;;4.81;100.00
68634;BME280;55625;47.072;22.192;2023-03-03T04:12:53;99875.78;;;4.79;100.00
68634;BME280;55625;47.072;22.192;2023-03-03T04:15:19;99876.97;;;4.78;100.00
68634;BME280;55625;47.072;22.192;2023-03-03T04:17:45;99870.16;;;4.79;100.00
68634;BME280;55625;47.072;22.192;2023-03-03T04:20:13;99871.34;;;4.78;100.00
68634;BME280;55625;47.072;22.192;2023-03-03T04:22:41;99873.38;;;4.77;100.00
68634;BME280;55625;47.072;22.192;2023-03-03T04:25:09;99873.38;;;4.77;100.00
68634;BME280;55625;47.072;22.192;2023-03-03T04:27:37;99875.38;;;4.77;100.00
68634;BME280;55625;47.072;22.192;2023-03-03T04:30:05;99870.97;;;4.76;100.00
68634;BME280;55625;47.072;22.192;2023-03-03T04:32:32;99868.16;;;4.76;100.00
68634;BME280;55625;47.072;22.192;2023-03-03T04:35:01;99868.16;;;4.76;100.00
68634;BME280;55625;47.072;22.192;2023-03-03T04:37:27;99869.75;;;4.77;100.00
68634;BME280;55625;47.072;22.192;2023-03-03T04:39:53;99869.75;;;4.77;100.00
68634;BME280;55625;47.072;22.192;2023-03-03T04:42:19;99868.97;;;4.76;100.00
68634;BME280;55625;47.072;22.192;2023-03-03T04:44:45;99869.38;;;4.75;100.00
68634;BME280;55625;47.072;22.192;2023-03-03T04:47:10;99875.00;;;4.75;100.00
68634;BME280;55625;47.072;22.192;2023-03-03T04:49:36;99868.97;;;4.76;100.00
68634;BME280;55625;47.072;22.192;2023-03-03T04:52:03;99872.56;;;4.77;100.00
68634;BME280;55625;47.072;22.192;2023-03-03T04:54:30;99870.97;;;4.76;100.00
68634;BME280;55625;47.072;22.192;2023-03-03T04:56:56;99873.41;;;4.74;100.00
68634;BME280;55625;47.072;22.192;2023-03-03T04:59:23;99873.81;;;4.72;100.00
68634;BME280;55625;47.072;22.192;2023-03-03T05:01:49;99869.41;;;4.71;100.00
68634;BME280;55625;47.072;22.192;2023-03-03T05:04:16;99871.78;;;4.73;100.00
68634;BME280;55625;47.072;22.192;2023-03-03T05:06:41;99866.97;;;4.73;100.00
68634;BME280;55625;47.072;22.192;2023-03-03T05:09:07;99867.78;;;4.74;100.00
68634;BME280;55625;47.072;22.192;2023-03-03T05:11:34;99875.00;;;4.75;100.00
68634;BME280;55625;47.072;22.192;2023-03-03T05:14:00;99871.34;;;4.78;100.00
68634;BME280;55625;47.072;22.192;2023-03-03T05:16:28;99881.41;;;4.79;100.00
68634;BME280;55625;47.072;22.192;2023-03-03T05:18:54;99878.19;;;4.77;100.00
68634;BME280;55625;47.072;22.192;2023-03-03T05:21:20;99877.75;;;4.82;100.00
68634;BME280;55625;47.072;22.192;2023-03-03T05:23:46;99878.56;;;4.82;100.00
68634;BME280;55625;47.072;22.192;2023-03-03T05:26:12;99878.94;;;4.84;100.00
68634;BME280;55625;47.072;22.192;2023-03-03T05:28:37;99875.72;;;4.86;100.00
68634;BME280;55625;47.072;22.192;2023-03-03T05:31:03;99873.28;;;4.88;100.00
68634;BME280;55625;47.072;22.192;2023-03-03T05:33:29;99880.94;;;4.91;100.00
68634;BME280;55625;47.072;22.192;2023-03-03T05:35:56;99875.69;;;4.93;100.00
68634;BME280;55625;47.072;22.192;2023-03-03T05:38:23;99882.50;;;4.95;100.00
68634;BME280;55625;47.072;22.192;2023-03-03T05:40:50;99875.69;;;4.96;100.00
68634;BME280;55625;47.072;22.192;2023-03-03T05:43:16;99880.88;;;4.98;100.00
68634;BME280;55625;47.072;22.192;2023-03-03T05:45:42;99876.44;;;5.01;100.00
68634;BME280;55625;47.072;22.192;2023-03-03T05:48:08;99881.25;;;5.04;100.00
68634;BME280;55625;47.072;22.192;2023-03-03T05:50:36;99882.44;;;5.06;100.00
68634;BME280;55625;47.072;22.192;2023-03-03T05:53:03;99877.19;;;5.08;100.00
68634;BME280;55625;47.072;22.192;2023-03-03T05:55:29;99892.03;;;5.12;100.00
68634;BME280;55625;47.072;22.192;2023-03-03T05:57:55;99885.19;;;5.13;100.00
68634;BME280;55625;47.072;22.192;2023-03-03T06:00:21;99884.78;;;5.15;100.00
68634;BME280;55625;47.072;22.192;2023-03-03T06:02:47;99890.38;;;5.18;100.00
68634;BME280;55625;47.072;22.192;2023-03-03T06:05:13;99898.38;;;5.20;100.00
68634;BME280;55625;47.072;22.192;2023-03-03T06:07:39;99893.19;;;5.22;100.00
68634;BME280;55625;47.072;22.192;2023-03-03T06:10:07;99899.59;;;5.22;100.00
68634;BME280;55625;47.072;22.192;2023-03-03T06:12:33;99896.78;;;5.22;100.00
68634;BME280;55625;47.072;22.192;2023-03-03T06:14:59;99900.38;;;5.26;100.00
68634;BME280;55625;47.072;22.192;2023-03-03T06:17:25;99899.56;;;5.26;100.00
68634;BME280;55625;47.072;22.192;2023-03-03T06:19:50;99896.34;;;5.27;100.00
68634;BME280;55625;47.072;22.192;2023-03-03T06:22:16;99895.13;;;5.28;100.00
68634;BME280;55625;47.072;22.192;2023-03-03T06:24:42;99901.91;;;5.35;100.00
68634;BME280;55625;47.072;22.192;2023-03-03T06:27:09;99897.09;;;5.35;100.00
68634;BME280;55625;47.072;22.192;2023-03-03T06:29:35;99894.63;;;5.41;100.00
68634;BME280;55625;47.072;22.192;2023-03-03T06:32:00;99894.59;;;5.44;100.00
68634;BME280;55625;47.072;22.192;2023-03-03T06:34:26;99896.97;;;5.49;100.00
68634;BME280;55625;47.072;22.192;2023-03-03T06:36:52;99902.97;;;5.55;100.00
68634;BME280;55625;47.072;22.192;2023-03-03T06:39:18;99900.09;;;5.62;100.00
68634;BME280;55625;47.072;22.192;2023-03-03T06:41:44;99898.41;;;5.68;100.00
68634;BME280;55625;47.072;22.192;2023-03-03T06:44:10;99900.78;;;5.73;100.00
68634;BME280;55625;47.072;22.192;2023-03-03T06:46:36;99908.75;;;5.78;100.00
68634;BME280;55625;47.072;22.192;2023-03-03T06:49:02;99910.34;;;5.83;100.00
68634;BME280;55625;47.072;22.192;2023-03-03T06:51:37;99909.53;;;5.86;100.00
68634;BME280;55625;47.072;22.192;2023-03-03T06:54:18;99910.31;;;5.90;100.00
68634;BME280;55625;47.072;22.192;2023-03-03T06:56:45;99916.72;;;5.94;100.00
68634;BME280;55625;47.072;22.192;2023-03-03T06:59:15;99915.81;;;6.01;100.00
68634;BME280;55625;47.072;22.192;2023-03-03T07:01:42;99911.34;;;6.07;100.00
68634;BME280;55625;47.072;22.192;2023-03-03T07:04:32;99914.16;;;6.41;100.00
68634;BME280;55625;47.072;22.192;2023-03-03T07:07:23;99914.06;;;6.82;100.00
68634;BME280;55625;47.072;22.192;2023-03-03T07:09:53;99924.16;;;7.10;99.67
68634;BME280;55625;47.072;22.192;2023-03-03T07:12:29;99924.00;;;7.21;97.83
68634;BME280;55625;47.072;22.192;2023-03-03T07:15:15;99918.41;;;7.17;96.73
68634;BME280;55625;47.072;22.192;2023-03-03T07:17:46;99915.66;;;7.13;97.94
68634;BME280;55625;47.072;22.192;2023-03-03T07:20:23;99918.78;;;7.19;96.63
68634;BME280;55625;47.072;22.192;2023-03-03T07:22:49;99926.03;;;7.20;96.57
68634;BME280;55625;47.072;22.192;2023-03-03T07:25:29;99918.53;;;7.10;96.84
68634;BME280;55625;47.072;22.192;2023-03-03T07:28:23;99919.63;;;6.89;96.74
68634;BME280;55625;47.072;22.192;2023-03-03T07:30:54;99928.56;;;6.84;97.45
68634;BME280;55625;47.072;22.192;2023-03-03T07:33:28;99923.00;;;6.77;98.14
68634;BME280;55625;47.072;22.192;2023-03-03T07:35:58;99926.03;;;6.59;98.53
68634;BME280;55625;47.072;22.192;2023-03-03T07:38:35;99927.78;;;6.49;99.30
68634;BME280;55625;47.072;22.192;2023-03-03T07:41:18;99928.25;;;6.44;100.00
68634;BME280;55625;47.072;22.192;2023-03-03T07:44:03;99933.09;;;6.40;100.00
68634;BME280;55625;47.072;22.192;2023-03-03T07:49:35;99919.69;;;6.51;100.00
68634;BME280;55625;47.072;22.192;2023-03-03T07:54:47;99932.19;;;6.50;99.82
68634;BME280;55625;47.072;22.192;2023-03-03T07:57:26;99935.50;;;6.42;100.00
68634;BME280;55625;47.072;22.192;2023-03-03T08:01:24;99932.56;;;6.52;100.00
68634;BME280;55625;47.072;22.192;2023-03-03T08:03:02;99927.41;;;6.47;100.00
68634;BME280;55625;47.072;22.192;2023-03-03T08:05:37;99927.78;;;6.49;100.00
68634;BME280;55625;47.072;22.192;2023-03-03T08:08:31;99923.75;;;6.50;99.74
68634;BME280;55625;47.072;22.192;2023-03-03T08:11:00;99933.84;;;6.48;99.81
68634;BME280;55625;47.072;22.192;2023-03-03T08:18:41;99937.75;;;6.58;99.31
68634;BME280;55625;47.072;22.192;2023-03-03T08:21:14;99930.03;;;6.62;98.91
68634;BME280;55625;47.072;22.192;2023-03-03T08:23:41;99936.75;;;6.75;98.72
68634;BME280;55625;47.072;22.192;2023-03-03T08:26:07;99927.84;;;6.76;97.69
68634;BME280;55625;47.072;22.192;2023-03-03T08:28:34;99927.88;;;6.73;97.83
68634;BME280;55625;47.072;22.192;2023-03-03T08:31:00;99919.41;;;6.76;97.89
68634;BME280;55625;47.072;22.192;2023-03-03T08:33:26;99926.81;;;6.94;97.18
68634;BME280;55625;47.072;22.192;2023-03-03T08:35:51;99925.91;;;7.00;97.70
68634;BME280;55625;47.072;22.192;2023-03-03T08:38:20;99921.81;;;7.05;97.91
68634;BME280;55625;47.072;22.192;2023-03-03T08:40:48;99919.41;;;7.03;97.07
68634;BME280;55625;47.072;22.192;2023-03-03T08:43:15;99927.41;;;7.08;97.92
68634;BME280;55625;47.072;22.192;2023-03-03T08:45:44;99924.06;;;7.17;98.32
68634;BME280;55625;47.072;22.192;2023-03-03T08:48:11;99922.28;;;7.27;97.18
68634;BME280;55625;47.072;22.192;2023-03-03T08:50:37;99923.47;;;7.29;97.61
68634;BME280;55625;47.072;22.192;2023-03-03T08:53:05;99915.72;;;7.33;96.13
68634;BME280;55625;47.072;22.192;2023-03-03T08:55:31;99925.72;;;7.41;96.65
68634;BME280;55625;47.072;22.192;2023-03-03T08:57:57;99920.81;;;7.45;95.32
68634;BME280;55625;47.072;22.192;2023-03-03T09:00:24;99917.25;;;7.41;95.69
68634;BME280;55625;47.072;22.192;2023-03-03T09:02:52;99917.31;;;7.38;95.65
68634;BME280;55625;47.072;22.192;2023-03-03T09:05:21;99917.31;;;7.38;95.74
68634;BME280;55625;47.072;22.192;2023-03-03T09:07:48;99918.53;;;7.37;94.86
68634;BME280;55625;47.072;22.192;2023-03-03T09:10:19;99915.72;;;7.33;93.45
68634;BME280;55625;47.072;22.192;2023-03-03T09:12:53;99918.97;;;7.32;94.37
68634;BME280;55625;47.072;22.192;2023-03-03T09:15:25;99920.97;;;7.35;93.68
68634;BME280;55625;47.072;22.192;2023-03-03T09:17:57;99917.31;;;7.38;93.38
68634;BME280;55625;47.072;22.192;2023-03-03T09:20:44;99912.41;;;7.42;92.98
68634;BME280;55625;47.072;22.192;2023-03-03T09:23:36;99914.59;;;7.54;93.17
68634;BME280;55625;47.072;22.192;2023-03-03T09:26:46;99917.22;;;7.68;91.27
68634;BME280;55625;47.072;22.192;2023-03-03T09:29:30;99920.28;;;7.77;91.05
68634;BME280;55625;47.072;22.192;2023-03-03T09:32:21;99914.06;;;7.86;90.17
68634;BME280;55625;47.072;22.192;2023-03-03T09:34:46;99921.13;;;7.98;90.33
68634;BME280;55625;47.072;22.192;2023-03-03T09:37:35;99907.53;;;8.13;90.41
68634;BME280;55625;47.072;22.192;2023-03-03T09:43:23;99915.00;;;8.23;89.19
68634;BME280;55625;47.072;22.192;2023-03-03T09:49:50;99915.63;;;8.74;86.58
68634;BME280;55625;47.072;22.192;2023-03-03T09:52:47;99915.75;;;8.86;84.16
68634;BME280;55625;47.072;22.192;2023-03-03T09:56:08;99921.28;;;9.46;83.61
68634;BME280;55625;47.072;22.192;2023-03-03T10:06:39;99912.84;;;10.23;77.55
68634;BME280;55625;47.072;22.192;2023-03-03T10:13:11;99904.13;;;10.31;75.56
68634;BME280;55625;47.072;22.192;2023-03-03T10:21:11;99914.72;;;10.14;79.32
68634;BME280;55625;47.072;22.192;2023-03-03T10:23:54;99911.09;;;9.97;77.35
68634;BME280;55625;47.072;22.192;2023-03-03T10:39:31;99892.94;;;9.94;80.55
68634;BME280;55625;47.072;22.192;2023-03-03T10:44:59;99887.66;;;9.80;78.98
68634;BME280;55625;47.072;22.192;2023-03-03T10:52:18;99870.16;;;9.98;79.54
68634;BME280;55625;47.072;22.192;2023-03-03T11:03:53;99864.84;;;10.58;75.38
68634;BME280;55625;47.072;22.192;2023-03-03T11:18:19;99858.97;;;10.65;77.32
68634;BME280;55625;47.072;22.192;2023-03-03T11:33:14;99838.66;;;11.43;75.75
68634;BME280;55625;47.072;22.192;2023-03-03T11:44:39;99826.81;;;12.70;71.93
68634;BME280;55625;47.072;22.192;2023-03-03T11:47:33;99816.50;;;12.63;67.83
68634;BME280;55625;47.072;22.192;2023-03-03T11:50:14;99818.38;;;12.35;67.30
68634;BME280;55625;47.072;22.192;2023-03-03T11:53:23;99819.94;;;12.36;70.25
68634;BME280;55625;47.072;22.192;2023-03-03T11:56:23;99807.72;;;12.80;70.25
68634;BME280;55625;47.072;22.192;2023-03-03T12:01:53;99805.59;;;13.02;67.59
68634;BME280;55625;47.072;22.192;2023-03-03T12:04:38;99811.50;;;12.77;66.34
68634;BME280;55625;47.072;22.192;2023-03-03T12:07:48;99794.66;;;12.60;65.54
68634;BME280;55625;47.072;22.192;2023-03-03T12:10:27;99794.53;;;12.42;64.90
68634;BME280;55625;47.072;22.192;2023-03-03T12:16:13;99782.59;;;12.56;65.22
68634;BME280;55625;47.072;22.192;2023-03-03T12:19:05;99787.59;;;12.74;65.69
68634;BME280;55625;47.072;22.192;2023-03-03T12:27:44;99783.34;;;11.69;65.67
68634;BME280;55625;47.072;22.192;2023-03-03T12:31:00;99788.84;;;11.51;67.03
68634;BME280;55625;47.072;22.192;2023-03-03T12:37:01;99784.75;;;11.52;66.24
68634;BME280;55625;47.072;22.192;2023-03-03T12:48:40;99786.63;;;11.20;68.31
68634;BME280;55625;47.072;22.192;2023-03-03T12:51:58;99789.97;;;11.06;68.31
68634;BME280;55625;47.072;22.192;2023-03-03T13:05:20;99784.06;;;10.75;69.42
68634;BME280;55625;47.072;22.192;2023-03-03T13:10:47;99769.59;;;11.20;68.61
68634;BME280;55625;47.072;22.192;2023-03-03T13:13:38;99778.34;;;11.01;68.29
68634;BME280;55625;47.072;22.192;2023-03-03T13:16:38;99771.66;;;10.95;69.43
68634;BME280;55625;47.072;22.192;2023-03-03T13:19:13;99769.75;;;10.79;69.68
68634;BME280;55625;47.072;22.192;2023-03-03T13:22:02;99769.72;;;10.92;69.47
68634;BME280;55625;47.072;22.192;2023-03-03T13:24:39;99768.72;;;10.85;69.82
68634;BME280;55625;47.072;22.192;2023-03-03T13:27:12;99776.88;;;10.71;69.43
68634;BME280;55625;47.072;22.192;2023-03-03T13:30:07;99761.00;;;10.61;70.56
68634;BME280;55625;47.072;22.192;2023-03-03T13:35:44;99761.78;;;10.61;70.99
68634;BME280;55625;47.072;22.192;2023-03-03T13:38:40;99757.94;;;10.55;70.13
68634;BME280;55625;47.072;22.192;2023-03-03T13:41:36;99756.09;;;10.61;71.00
68634;BME280;55625;47.072;22.192;2023-03-03T13:44:10;99752.59;;;10.70;71.86
68634;BME280;55625;47.072;22.192;2023-03-03T13:49:35;99749.63;;;10.86;70.32
68634;BME280;55625;47.072;22.192;2023-03-03T13:57:36;99748.94;;;11.07;70.94
68634;BME280;55625;47.072;22.192;2023-03-03T14:06:12;99746.28;;;11.26;69.66
68634;BME280;55625;47.072;22.192;2023-03-03T14:16:56;99740.44;;;10.95;70.50
68634;BME280;55625;47.072;22.192;2023-03-03T14:19:31;99745.53;;;11.00;70.93
68634;BME280;55625;47.072;22.192;2023-03-03T14:22:36;99742.22;;;11.14;71.76
68634;BME280;55625;47.072;22.192;2023-03-03T14:25:14;99744.50;;;11.19;70.71
68634;BME280;55625;47.072;22.192;2023-03-03T14:30:41;99739.19;;;11.08;70.68
68634;BME280;55625;47.072;22.192;2023-03-03T14:38:34;99727.94;;;10.92;71.89
68634;BME280;55625;47.072;22.192;2023-03-03T14:41:17;99725.69;;;10.74;73.33
68634;BME280;55625;47.072;22.192;2023-03-03T14:44:00;99729.53;;;10.55;73.68
68634;BME280;55625;47.072;22.192;2023-03-03T14:46:37;99741.81;;;10.52;73.47
68634;BME280;55625;47.072;22.192;2023-03-03T14:49:14;99734.63;;;10.35;73.65
68634;BME280;55625;47.072;22.192;2023-03-03T14:51:42;99733.22;;;10.14;74.46
68634;BME280;55625;47.072;22.192;2023-03-03T14:54:20;99737.31;;;10.13;75.83
68634;BME280;55625;47.072;22.192;2023-03-03T14:59:36;99738.63;;;10.08;76.15
68634;BME280;55625;47.072;22.192;2023-03-03T15:04:47;99726.38;;;9.99;76.42
68634;BME280;55625;47.072;22.192;2023-03-03T15:07:35;99733.16;;;10.01;75.89
68634;BME280;55625;47.072;22.192;2023-03-03T15:10:03;99730.00;;;9.99;76.70
68634;BME280;55625;47.072;22.192;2023-03-03T15:17:39;99735.81;;;9.79;77.51
68634;BME280;55625;47.072;22.192;2023-03-03T15:27:27;99733.84;;;9.63;78.15
68634;BME280;55625;47.072;22.192;2023-03-03T15:32:42;99741.88;;;9.36;79.72
68634;BME280;55625;47.072;22.192;2023-03-03T15:35:35;99739.88;;;9.20;80.31
68634;BME280;55625;47.072;22.192;2023-03-03T15:38:22;99735.16;;;9.30;80.59
68634;BME280;55625;47.072;22.192;2023-03-03T15:47:16;99738.38;;;8.99;81.55
68634;BME280;55625;47.072;22.192;2023-03-03T16:02:15;99744.81;;;8.31;84.87
68634;BME280;55625;47.072;22.192;2023-03-03T16:05:13;99753.94;;;8.19;85.76
68634;BME280;55625;47.072;22.192;2023-03-03T16:10:57;99762.88;;;7.98;87.02
68634;BME280;55625;47.072;22.192;2023-03-03T16:17:17;99757.72;;;7.73;88.30
68634;BME280;55625;47.072;22.192;2023-03-03T16:31:57;99786.50;;;7.21;90.20
68634;BME280;55625;47.072;22.192;2023-03-03T16:37:21;99779.44;;;7.09;90.21
68634;BME280;55625;47.072;22.192;2023-03-03T16:40:13;99776.69;;;7.06;90.74
68634;BME280;55625;47.072;22.192;2023-03-03T16:42:43;99788.81;;;7.03;90.89
68634;BME280;55625;47.072;22.192;2023-03-03T16:45:27;99784.94;;;6.93;90.66
68634;BME280;55625;47.072;22.192;2023-03-03T17:05:26;99814.06;;;6.29;94.14
68634;BME280;55625;47.072;22.192;2023-03-03T17:10:31;99822.25;;;6.20;94.26
68634;BME280;55625;47.072;22.192;2023-03-03T17:16:14;99818.31;;;6.14;94.17
68634;BME280;55625;47.072;22.192;2023-03-03T17:19:13;99821.19;;;6.07;94.92
68634;BME280;55625;47.072;22.192;2023-03-03T17:30:56;99839.59;;;5.77;95.24
68634;BME280;55625;47.072;22.192;2023-03-03T17:36:23;99846.19;;;5.64;96.39
68634;BME280;55625;47.072;22.192;2023-03-03T17:47:18;99848.38;;;5.42;96.93
68634;BME280;55625;47.072;22.192;2023-03-03T17:56:17;99841.28;;;5.26;97.64
68634;BME280;55625;47.072;22.192;2023-03-03T18:10:50;99860.84;;;5.41;98.58
68634;BME280;55625;47.072;22.192;2023-03-03T18:22:17;99872.50;;;5.43;99.19
68634;BME280;55625;47.072;22.192;2023-03-03T18:33:06;99869.88;;;5.21;99.57
68634;BME280;55625;47.072;22.192;2023-03-03T18:38:25;99874.00;;;5.06;99.81
68634;BME280;55625;47.072;22.192;2023-03-03T18:49:08;99886.16;;;4.92;99.88